sensor_id;sensor_type;location;lat;lon;timestamp;P1;durP1;ratioP1;P2;durP2;ratioP2
72813;SDS011;60945;48.516;-2.768;2023-04-03T00:01:57;7.00;;;2.70;;
72813;SDS011;60945;48.516;-2.768;2023-04-03T00:04:23;6.82;;;3.05;;
72813;SDS011;60945;48.516;-2.768;2023-04-03T00:06:49;4.55;;;2.50;;
72813;SDS011;60945;48.516;-2.768;2023-04-03T00:09:14;6.30;;;2.72;;
72813;SDS011;60945;48.516;-2.768;2023-04-03T00:11:40;7.72;;;3.35;;
72813;SDS011;60945;48.516;-2.768;2023-04-03T00:14:05;4.63;;;2.50;;
72813;SDS011;60945;48.516;-2.768;2023-04-03T00:16:31;5.80;;;2.88;;
72813;SDS011;60945;48.516;-2.768;2023-04-03T00:18:57;6.22;;;2.90;;
72813;SDS011;60945;48.516;-2.768;2023-04-03T00:21:22;6.07;;;2.55;;
72813;SDS011;60945;48.516;-2.768;2023-04-03T00:23:48;7.97;;;2.90;;
72813;SDS011;60945;48.516;-2.768;2023-04-03T00:26:14;5.82;;;2.58;;
72813;SDS011;60945;48.516;-2.768;2023-04-03T00:28:39;8.57;;;3.50;;
72813;SDS011;60945;48.516;-2.768;2023-04-03T00:31:05;4.60;;;2.50;;
72813;SDS011;60945;48.516;-2.768;2023-04-03T00:33:31;8.20;;;3.63;;
72813;SDS011;60945;48.516;-2.768;2023-04-03T00:35:56;8.10;;;2.80;;
72813;SDS011;60945;48.516;-2.768;2023-04-03T00:38:25;5.78;;;2.70;;
72813;SDS011;60945;48.516;-2.768;2023-04-03T00:40:50;7.35;;;3.30;;
72813;SDS011;60945;48.516;-2.768;2023-04-03T00:43:17;6.97;;;3.00;;
72813;SDS011;60945;48.516;-2.768;2023-04-03T00:45:48;5.57;;;2.58;;
72813;SDS011;60945;48.516;-2.768;2023-04-03T00:48:18;6.90;;;2.83;;
72813;SDS011;60945;48.516;-2.768;2023-04-03T00:50:47;9.65;;;2.72;;
72813;SDS011;60945;48.516;-2.768;2023-04-03T00:53:16;7.15;;;2.72;;
72813;SDS011;60945;48.516;-2.768;2023-04-03T00:55:47;5.45;;;3.00;;
72813;SDS011;60945;48.516;-2.768;2023-04-03T00:58:14;6.78;;;2.88;;
72813;SDS011;60945;48.516;-2.768;2023-04-03T01:00:43;6.03;;;3.08;;
72813;SDS011;60945;48.516;-2.768;2023-04-03T01:03:16;9.73;;;2.78;;
72813;SDS011;60945;48.516;-2.768;2023-04-03T01:05:42;9.02;;;4.03;;
72813;SDS011;60945;48.516;-2.768;2023-04-03T01:08:07;7.20;;;3.22;;
72813;SDS011;60945;48.516;-2.768;2023-04-03T01:10:33;6.70;;;3.10;;
72813;SDS011;60945;48.516;-2.768;2023-04-03T01:12:59;7.90;;;2.85;;
72813;SDS011;60945;48.516;-2.768;2023-04-03T01:15:27;5.03;;;3.22;;
72813;SDS011;60945;48.516;-2.768;2023-04-03T01:17:59;7.22;;;3.33;;
72813;SDS011;60945;48.516;-2.768;2023-04-03T01:25:32;8.55;;;3.13;;
72813;SDS011;60945;48.516;-2.768;2023-04-03T01:27:59;5.72;;;2.70;;
72813;SDS011;60945;48.516;-2.768;2023-04-03T01:30:26;6.95;;;3.13;;
72813;SDS011;60945;48.516;-2.768;2023-04-03T01:32:56;6.38;;;3.35;;
72813;SDS011;60945;48.516;-2.768;2023-04-03T01:35:22;6.40;;;2.83;;
72813;SDS011;60945;48.516;-2.768;2023-04-03T01:37:53;6.10;;;3.13;;
72813;SDS011;60945;48.516;-2.768;2023-04-03T01:40:19;5.38;;;3.20;;
72813;SDS011;60945;48.516;-2.768;2023-04-03T01:42:44;8.73;;;3.00;;
72813;SDS011;60945;48.516;-2.768;2023-04-03T01:45:10;9.20;;;3.13;;
72813;SDS011;60945;48.516;-2.768;2023-04-03T01:47:36;8.75;;;2.72;;
72813;SDS011;60945;48.516;-2.768;2023-04-03T01:50:04;5.90;;;2.90;;
72813;SDS011;60945;48.516;-2.768;2023-04-03T01:52:30;6.18;;;2.92;;
72813;SDS011;60945;48.516;-2.768;2023-04-03T01:54:56;8.77;;;3.28;;
72813;SDS011;60945;48.516;-2.768;2023-04-03T01:57:22;7.60;;;3.60;;
72813;SDS011;60945;48.516;-2.768;2023-04-03T01:59:47;7.25;;;3.38;;
72813;SDS011;60945;48.516;-2.768;2023-04-03T02:02:13;8.90;;;4.00;;
72813;SDS011;60945;48.516;-2.768;2023-04-03T02:04:39;9.38;;;4.30;;
72813;SDS011;60945;48.516;-2.768;2023-04-03T02:07:05;9.35;;;3.95;;
72813;SDS011;60945;48.516;-2.768;2023-04-03T02:09:31;7.35;;;4.20;;
72813;SDS011;60945;48.516;-2.768;2023-04-03T02:11:57;10.82;;;4.05;;
72813;SDS011;60945;48.516;-2.768;2023-04-03T02:14:22;12.13;;;4.32;;
72813;SDS011;60945;48.516;-2.768;2023-04-03T02:16:48;7.97;;;4.07;;
72813;SDS011;60945;48.516;-2.768;2023-04-03T02:19:14;9.95;;;3.70;;
72813;SDS011;60945;48.516;-2.768;2023-04-03T02:21:40;11.20;;;3.72;;
72813;SDS011;60945;48.516;-2.768;2023-04-03T02:24:06;8.45;;;3.75;;
72813;SDS011;60945;48.516;-2.768;2023-04-03T02:26:32;9.13;;;3.67;;
72813;SDS011;60945;48.516;-2.768;2023-04-03T02:29:00;7.93;;;3.22;;
72813;SDS011;60945;48.516;-2.768;2023-04-03T02:31:25;5.82;;;3.05;;
72813;SDS011;60945;48.516;-2.768;2023-04-03T02:33:51;8.52;;;3.42;;
72813;SDS011;60945;48.516;-2.768;2023-04-03T02:36:17;11.77;;;3.38;;
72813;SDS011;60945;48.516;-2.768;2023-04-03T02:38:43;6.78;;;3.05;;
72813;SDS011;60945;48.516;-2.768;2023-04-03T02:41:09;8.15;;;3.13;;
72813;SDS011;60945;48.516;-2.768;2023-04-03T02:43:36;5.30;;;3.17;;
72813;SDS011;60945;48.516;-2.768;2023-04-03T02:46:02;7.15;;;3.20;;
72813;SDS011;60945;48.516;-2.768;2023-04-03T02:48:28;8.48;;;3.97;;
72813;SDS011;60945;48.516;-2.768;2023-04-03T02:50:54;11.15;;;3.25;;
72813;SDS011;60945;48.516;-2.768;2023-04-03T02:53:20;10.98;;;3.35;;
72813;SDS011;60945;48.516;-2.768;2023-04-03T02:55:46;9.70;;;3.40;;
72813;SDS011;60945;48.516;-2.768;2023-04-03T02:58:12;9.40;;;3.45;;
72813;SDS011;60945;48.516;-2.768;2023-04-03T03:00:37;11.27;;;3.78;;
72813;SDS011;60945;48.516;-2.768;2023-04-03T03:03:03;10.55;;;3.22;;
72813;SDS011;60945;48.516;-2.768;2023-04-03T03:05:29;13.60;;;3.72;;
72813;SDS011;60945;48.516;-2.768;2023-04-03T03:07:55;7.90;;;3.47;;
72813;SDS011;60945;48.516;-2.768;2023-04-03T03:10:21;9.48;;;2.90;;
72813;SDS011;60945;48.516;-2.768;2023-04-03T03:12:47;7.40;;;2.95;;
72813;SDS011;60945;48.516;-2.768;2023-04-03T03:15:13;9.95;;;3.13;;
72813;SDS011;60945;48.516;-2.768;2023-04-03T03:17:40;10.75;;;3.45;;
72813;SDS011;60945;48.516;-2.768;2023-04-03T03:20:06;9.20;;;3.20;;
72813;SDS011;60945;48.516;-2.768;2023-04-03T03:22:33;6.85;;;2.60;;
72813;SDS011;60945;48.516;-2.768;2023-04-03T03:25:00;9.00;;;2.72;;
72813;SDS011;60945;48.516;-2.768;2023-04-03T03:27:26;13.63;;;3.63;;
72813;SDS011;60945;48.516;-2.768;2023-04-03T03:29:52;7.32;;;3.25;;
72813;SDS011;60945;48.516;-2.768;2023-04-03T03:32:20;10.07;;;3.10;;
72813;SDS011;60945;48.516;-2.768;2023-04-03T03:34:46;8.73;;;3.33;;
72813;SDS011;60945;48.516;-2.768;2023-04-03T03:37:11;9.50;;;2.92;;
72813;SDS011;60945;48.516;-2.768;2023-04-03T03:39:37;8.52;;;3.67;;
72813;SDS011;60945;48.516;-2.768;2023-04-03T03:42:03;9.65;;;2.97;;
72813;SDS011;60945;48.516;-2.768;2023-04-03T03:44:28;8.48;;;2.50;;
72813;SDS011;60945;48.516;-2.768;2023-04-03T03:46:54;10.13;;;2.83;;
72813;SDS011;60945;48.516;-2.768;2023-04-03T03:49:21;7.05;;;2.75;;
72813;SDS011;60945;48.516;-2.768;2023-04-03T03:51:46;8.65;;;2.10;;
72813;SDS011;60945;48.516;-2.768;2023-04-03T03:54:12;7.97;;;2.65;;
72813;SDS011;60945;48.516;-2.768;2023-04-03T03:56:38;10.88;;;2.72;;
72813;SDS011;60945;48.516;-2.768;2023-04-03T03:59:04;11.80;;;2.85;;
72813;SDS011;60945;48.516;-2.768;2023-04-03T04:01:30;6.97;;;2.55;;
72813;SDS011;60945;48.516;-2.768;2023-04-03T04:03:56;9.43;;;3.20;;
72813;SDS011;60945;48.516;-2.768;2023-04-03T04:06:22;9.65;;;2.90;;
72813;SDS011;60945;48.516;-2.768;2023-04-03T04:08:48;12.75;;;2.40;;
72813;SDS011;60945;48.516;-2.768;2023-04-03T04:11:14;4.43;;;1.80;;
72813;SDS011;60945;48.516;-2.768;2023-04-03T04:13:42;7.55;;;2.00;;
72813;SDS011;60945;48.516;-2.768;2023-04-03T04:16:07;8.65;;;1.80;;
72813;SDS011;60945;48.516;-2.768;2023-04-03T04:18:34;7.18;;;2.20;;
72813;SDS011;60945;48.516;-2.768;2023-04-03T04:21:00;5.57;;;1.88;;
72813;SDS011;60945;48.516;-2.768;2023-04-03T04:23:25;8.65;;;2.20;;
72813;SDS011;60945;48.516;-2.768;2023-04-03T04:25:51;5.75;;;1.90;;
72813;SDS011;60945;48.516;-2.768;2023-04-03T04:28:17;7.13;;;2.78;;
72813;SDS011;60945;48.516;-2.768;2023-04-03T04:30:43;7.45;;;2.33;;
72813;SDS011;60945;48.516;-2.768;2023-04-03T04:33:09;7.47;;;2.38;;
72813;SDS011;60945;48.516;-2.768;2023-04-03T04:35:35;6.82;;;1.80;;
72813;SDS011;60945;48.516;-2.768;2023-04-03T04:38:01;9.30;;;1.70;;
72813;SDS011;60945;48.516;-2.768;2023-04-03T04:40:27;8.55;;;2.08;;
72813;SDS011;60945;48.516;-2.768;2023-04-03T04:42:53;6.03;;;1.83;;
72813;SDS011;60945;48.516;-2.768;2023-04-03T04:45:19;4.72;;;1.60;;
72813;SDS011;60945;48.516;-2.768;2023-04-03T04:47:45;10.88;;;2.50;;
72813;SDS011;60945;48.516;-2.768;2023-04-03T04:50:11;12.00;;;2.40;;
72813;SDS011;60945;48.516;-2.768;2023-04-03T04:52:36;7.43;;;1.80;;
72813;SDS011;60945;48.516;-2.768;2023-04-03T04:55:03;7.35;;;2.00;;
72813;SDS011;60945;48.516;-2.768;2023-04-03T04:57:29;10.27;;;2.25;;
72813;SDS011;60945;48.516;-2.768;2023-04-03T04:59:55;5.85;;;1.90;;
72813;SDS011;60945;48.516;-2.768;2023-04-03T05:02:20;6.18;;;2.28;;
72813;SDS011;60945;48.516;-2.768;2023-04-03T05:04:46;6.57;;;1.88;;
72813;SDS011;60945;48.516;-2.768;2023-04-03T05:07:12;10.25;;;2.00;;
72813;SDS011;60945;48.516;-2.768;2023-04-03T05:09:37;6.18;;;1.77;;
72813;SDS011;60945;48.516;-2.768;2023-04-03T05:12:03;6.72;;;1.55;;
72813;SDS011;60945;48.516;-2.768;2023-04-03T05:14:29;6.65;;;2.28;;
72813;SDS011;60945;48.516;-2.768;2023-04-03T05:16:55;5.88;;;1.60;;
72813;SDS011;60945;48.516;-2.768;2023-04-03T05:19:21;4.22;;;1.90;;
72813;SDS011;60945;48.516;-2.768;2023-04-03T05:21:47;6.10;;;1.92;;
72813;SDS011;60945;48.516;-2.768;2023-04-03T05:24:13;7.80;;;1.85;;
72813;SDS011;60945;48.516;-2.768;2023-04-03T05:26:39;7.75;;;1.73;;
72813;SDS011;60945;48.516;-2.768;2023-04-03T05:29:05;4.78;;;1.65;;
72813;SDS011;60945;48.516;-2.768;2023-04-03T05:31:31;10.57;;;1.90;;
72813;SDS011;60945;48.516;-2.768;2023-04-03T05:33:57;5.53;;;1.40;;
72813;SDS011;60945;48.516;-2.768;2023-04-03T05:36:23;6.72;;;2.08;;
72813;SDS011;60945;48.516;-2.768;2023-04-03T05:38:49;5.45;;;1.40;;
72813;SDS011;60945;48.516;-2.768;2023-04-03T05:41:15;7.57;;;1.88;;
72813;SDS011;60945;48.516;-2.768;2023-04-03T05:43:41;9.55;;;1.92;;
72813;SDS011;60945;48.516;-2.768;2023-04-03T05:46:09;11.07;;;2.10;;
72813;SDS011;60945;48.516;-2.768;2023-04-03T05:48:39;7.80;;;1.75;;
72813;SDS011;60945;48.516;-2.768;2023-04-03T05:51:07;8.40;;;1.80;;
72813;SDS011;60945;48.516;-2.768;2023-04-03T05:53:38;3.83;;;1.20;;
72813;SDS011;60945;48.516;-2.768;2023-04-03T05:56:04;4.90;;;1.75;;
72813;SDS011;60945;48.516;-2.768;2023-04-03T05:58:30;8.85;;;1.70;;
72813;SDS011;60945;48.516;-2.768;2023-04-03T06:00:56;6.65;;;1.77;;
72813;SDS011;60945;48.516;-2.768;2023-04-03T06:03:22;4.60;;;1.85;;
72813;SDS011;60945;48.516;-2.768;2023-04-03T06:05:48;4.97;;;1.60;;
72813;SDS011;60945;48.516;-2.768;2023-04-03T06:08:14;4.82;;;1.45;;
72813;SDS011;60945;48.516;-2.768;2023-04-03T06:10:40;6.05;;;1.45;;
72813;SDS011;60945;48.516;-2.768;2023-04-03T06:13:05;6.55;;;1.58;;
72813;SDS011;60945;48.516;-2.768;2023-04-03T06:15:32;5.20;;;1.55;;
72813;SDS011;60945;48.516;-2.768;2023-04-03T06:18:01;6.70;;;1.63;;
72813;SDS011;60945;48.516;-2.768;2023-04-03T06:20:27;6.88;;;1.70;;
72813;SDS011;60945;48.516;-2.768;2023-04-03T06:22:52;6.03;;;1.83;;
72813;SDS011;60945;48.516;-2.768;2023-04-03T06:25:18;5.57;;;1.60;;
72813;SDS011;60945;48.516;-2.768;2023-04-03T06:27:44;5.15;;;1.70;;
72813;SDS011;60945;48.516;-2.768;2023-04-03T06:30:10;9.30;;;2.58;;
72813;SDS011;60945;48.516;-2.768;2023-04-03T06:32:37;5.18;;;1.45;;
72813;SDS011;60945;48.516;-2.768;2023-04-03T06:35:03;8.02;;;1.80;;
72813;SDS011;60945;48.516;-2.768;2023-04-03T06:37:30;5.65;;;1.42;;
72813;SDS011;60945;48.516;-2.768;2023-04-03T06:39:57;5.57;;;1.90;;
72813;SDS011;60945;48.516;-2.768;2023-04-03T06:42:25;9.20;;;1.90;;
72813;SDS011;60945;48.516;-2.768;2023-04-03T06:44:52;6.55;;;1.92;;
72813;SDS011;60945;48.516;-2.768;2023-04-03T06:47:19;5.78;;;1.70;;
72813;SDS011;60945;48.516;-2.768;2023-04-03T06:49:46;5.93;;;1.90;;
72813;SDS011;60945;48.516;-2.768;2023-04-03T06:52:12;4.28;;;1.63;;
72813;SDS011;60945;48.516;-2.768;2023-04-03T06:54:38;6.10;;;2.05;;
72813;SDS011;60945;48.516;-2.768;2023-04-03T06:57:05;6.40;;;1.80;;
72813;SDS011;60945;48.516;-2.768;2023-04-03T06:59:31;4.55;;;1.65;;
72813;SDS011;60945;48.516;-2.768;2023-04-03T07:01:58;9.73;;;1.85;;
72813;SDS011;60945;48.516;-2.768;2023-04-03T07:04:26;10.55;;;2.30;;
72813;SDS011;60945;48.516;-2.768;2023-04-03T07:06:53;8.40;;;2.15;;
72813;SDS011;60945;48.516;-2.768;2023-04-03T07:09:21;5.45;;;2.17;;
72813;SDS011;60945;48.516;-2.768;2023-04-03T07:11:49;7.70;;;2.00;;
72813;SDS011;60945;48.516;-2.768;2023-04-03T07:14:17;6.63;;;1.52;;
72813;SDS011;60945;48.516;-2.768;2023-04-03T07:16:47;8.25;;;2.58;;
72813;SDS011;60945;48.516;-2.768;2023-04-03T07:19:16;7.60;;;2.00;;
72813;SDS011;60945;48.516;-2.768;2023-04-03T07:21:46;8.60;;;2.25;;
72813;SDS011;60945;48.516;-2.768;2023-04-03T07:24:14;6.97;;;2.55;;
72813;SDS011;60945;48.516;-2.768;2023-04-03T07:26:41;7.05;;;2.65;;
72813;SDS011;60945;48.516;-2.768;2023-04-03T07:29:10;6.45;;;3.05;;
72813;SDS011;60945;48.516;-2.768;2023-04-03T07:31:38;6.47;;;2.45;;
72813;SDS011;60945;48.516;-2.768;2023-04-03T07:34:05;6.43;;;2.75;;
72813;SDS011;60945;48.516;-2.768;2023-04-03T07:36:32;7.75;;;3.30;;
72813;SDS011;60945;48.516;-2.768;2023-04-03T07:38:58;7.72;;;3.20;;
72813;SDS011;60945;48.516;-2.768;2023-04-03T07:41:27;8.02;;;3.13;;
72813;SDS011;60945;48.516;-2.768;2023-04-03T07:43:53;5.25;;;2.72;;
72813;SDS011;60945;48.516;-2.768;2023-04-03T07:46:21;5.18;;;2.83;;
72813;SDS011;60945;48.516;-2.768;2023-04-03T07:48:47;7.07;;;3.10;;
72813;SDS011;60945;48.516;-2.768;2023-04-03T07:51:13;8.38;;;4.15;;
72813;SDS011;60945;48.516;-2.768;2023-04-03T07:53:38;6.80;;;3.60;;
72813;SDS011;60945;48.516;-2.768;2023-04-03T07:56:04;11.45;;;4.68;;
72813;SDS011;60945;48.516;-2.768;2023-04-03T07:58:30;8.82;;;3.83;;
72813;SDS011;60945;48.516;-2.768;2023-04-03T08:00:56;12.15;;;4.43;;
72813;SDS011;60945;48.516;-2.768;2023-04-03T08:03:22;7.93;;;3.58;;
72813;SDS011;60945;48.516;-2.768;2023-04-03T08:05:48;9.10;;;3.58;;
72813;SDS011;60945;48.516;-2.768;2023-04-03T08:08:18;8.18;;;4.47;;
72813;SDS011;60945;48.516;-2.768;2023-04-03T08:10:52;7.75;;;4.45;;
72813;SDS011;60945;48.516;-2.768;2023-04-03T08:13:19;9.93;;;4.43;;
72813;SDS011;60945;48.516;-2.768;2023-04-03T08:15:45;8.35;;;4.97;;
72813;SDS011;60945;48.516;-2.768;2023-04-03T08:18:11;7.68;;;4.18;;
72813;SDS011;60945;48.516;-2.768;2023-04-03T08:20:38;10.10;;;4.93;;
72813;SDS011;60945;48.516;-2.768;2023-04-03T08:23:05;11.13;;;4.75;;
72813;SDS011;60945;48.516;-2.768;2023-04-03T08:25:32;8.30;;;4.97;;
72813;SDS011;60945;48.516;-2.768;2023-04-03T08:27:58;8.15;;;5.03;;
72813;SDS011;60945;48.516;-2.768;2023-04-03T08:30:24;10.63;;;5.80;;
72813;SDS011;60945;48.516;-2.768;2023-04-03T08:32:50;8.00;;;5.30;;
72813;SDS011;60945;48.516;-2.768;2023-04-03T08:35:15;8.32;;;5.30;;
72813;SDS011;60945;48.516;-2.768;2023-04-03T08:37:41;9.52;;;4.80;;
72813;SDS011;60945;48.516;-2.768;2023-04-03T08:40:07;10.35;;;4.68;;
72813;SDS011;60945;48.516;-2.768;2023-04-03T08:42:45;10.52;;;4.78;;
72813;SDS011;60945;48.516;-2.768;2023-04-03T08:50:31;8.03;;;5.00;;
72813;SDS011;60945;48.516;-2.768;2023-04-03T08:53:02;9.27;;;5.22;;
72813;SDS011;60945;48.516;-2.768;2023-04-03T08:55:33;8.93;;;5.68;;
72813;SDS011;60945;48.516;-2.768;2023-04-03T08:58:05;7.82;;;4.63;;
72813;SDS011;60945;48.516;-2.768;2023-04-03T09:00:39;7.00;;;4.70;;
72813;SDS011;60945;48.516;-2.768;2023-04-03T09:03:15;9.23;;;5.75;;
72813;SDS011;60945;48.516;-2.768;2023-04-03T09:08:45;11.25;;;5.00;;
72813;SDS011;60945;48.516;-2.768;2023-04-03T09:11:23;9.55;;;5.20;;
72813;SDS011;60945;48.516;-2.768;2023-04-03T09:13:57;7.68;;;5.13;;
72813;SDS011;60945;48.516;-2.768;2023-04-03T09:16:31;8.30;;;5.60;;
72813;SDS011;60945;48.516;-2.768;2023-04-03T09:24:43;7.47;;;4.85;;
72813;SDS011;60945;48.516;-2.768;2023-04-03T09:27:13;7.93;;;5.32;;
72813;SDS011;60945;48.516;-2.768;2023-04-03T09:29:39;10.55;;;5.28;;
72813;SDS011;60945;48.516;-2.768;2023-04-03T09:32:21;8.57;;;5.88;;
72813;SDS011;60945;48.516;-2.768;2023-04-03T09:34:51;7.32;;;6.22;;
72813;SDS011;60945;48.516;-2.768;2023-04-03T09:38:14;9.80;;;5.80;;
72813;SDS011;60945;48.516;-2.768;2023-04-03T09:40:27;14.07;;;7.32;;
72813;SDS011;60945;48.516;-2.768;2023-04-03T09:43:20;9.10;;;6.00;;
72813;SDS011;60945;48.516;-2.768;2023-04-03T09:45:52;7.22;;;6.18;;
72813;SDS011;60945;48.516;-2.768;2023-04-03T09:48:20;9.02;;;6.18;;
72813;SDS011;60945;48.516;-2.768;2023-04-03T09:56:25;10.55;;;6.43;;
72813;SDS011;60945;48.516;-2.768;2023-04-03T10:04:22;8.70;;;7.10;;
72813;SDS011;60945;48.516;-2.768;2023-04-03T10:06:48;9.10;;;6.60;;
72813;SDS011;60945;48.516;-2.768;2023-04-03T10:11:59;8.70;;;7.25;;
72813;SDS011;60945;48.516;-2.768;2023-04-03T10:14:26;9.27;;;7.82;;
72813;SDS011;60945;48.516;-2.768;2023-04-03T10:16:55;8.40;;;6.97;;
72813;SDS011;60945;48.516;-2.768;2023-04-03T10:19:43;8.18;;;7.38;;
72813;SDS011;60945;48.516;-2.768;2023-04-03T10:22:13;8.30;;;7.50;;
72813;SDS011;60945;48.516;-2.768;2023-04-03T10:35:53;8.40;;;7.50;;
72813;SDS011;60945;48.516;-2.768;2023-04-03T10:41:27;8.80;;;7.97;;
72813;SDS011;60945;48.516;-2.768;2023-04-03T10:47:02;8.73;;;7.68;;
72813;SDS011;60945;48.516;-2.768;2023-04-03T10:49:56;8.32;;;7.53;;
72813;SDS011;60945;48.516;-2.768;2023-04-03T10:53:00;8.73;;;7.90;;
72813;SDS011;60945;48.516;-2.768;2023-04-03T10:58:02;8.98;;;8.23;;
72813;SDS011;60945;48.516;-2.768;2023-04-03T11:03:01;8.30;;;7.50;;
72813;SDS011;60945;48.516;-2.768;2023-04-03T11:05:40;9.20;;;8.32;;
72813;SDS011;60945;48.516;-2.768;2023-04-03T11:08:11;9.35;;;8.55;;
72813;SDS011;60945;48.516;-2.768;2023-04-03T11:10:51;8.80;;;7.95;;
72813;SDS011;60945;48.516;-2.768;2023-04-03T11:13:24;8.63;;;7.68;;
72813;SDS011;60945;48.516;-2.768;2023-04-03T11:16:13;9.05;;;8.20;;
72813;SDS011;60945;48.516;-2.768;2023-04-03T11:18:49;8.60;;;7.75;;
72813;SDS011;60945;48.516;-2.768;2023-04-03T11:21:27;8.48;;;7.65;;
72813;SDS011;60945;48.516;-2.768;2023-04-03T11:23:57;13.48;;;8.23;;
72813;SDS011;60945;48.516;-2.768;2023-04-03T11:26:29;9.02;;;8.23;;
72813;SDS011;60945;48.516;-2.768;2023-04-03T11:29:00;8.30;;;7.60;;
72813;SDS011;60945;48.516;-2.768;2023-04-03T11:31:37;9.00;;;8.15;;
72813;SDS011;60945;48.516;-2.768;2023-04-03T11:37:04;8.68;;;7.88;;
72813;SDS011;60945;48.516;-2.768;2023-04-03T11:39:38;8.57;;;7.88;;
72813;SDS011;60945;48.516;-2.768;2023-04-03T11:44:41;9.40;;;8.50;;
72813;SDS011;60945;48.516;-2.768;2023-04-03T11:47:08;9.40;;;8.50;;
72813;SDS011;60945;48.516;-2.768;2023-04-03T11:49:53;10.55;;;9.55;;
72813;SDS011;60945;48.516;-2.768;2023-04-03T11:55:35;10.98;;;9.98;;
72813;SDS011;60945;48.516;-2.768;2023-04-03T12:05:56;12.55;;;11.20;;
72813;SDS011;60945;48.516;-2.768;2023-04-03T12:13:41;11.50;;;10.02;;
72813;SDS011;60945;48.516;-2.768;2023-04-03T12:16:23;12.45;;;10.25;;
72813;SDS011;60945;48.516;-2.768;2023-04-03T12:18:58;11.85;;;10.52;;
72813;SDS011;60945;48.516;-2.768;2023-04-03T12:29:38;11.80;;;10.70;;
72813;SDS011;60945;48.516;-2.768;2023-04-03T12:32:18;11.80;;;10.70;;
72813;SDS011;60945;48.516;-2.768;2023-04-03T12:46:02;14.48;;;12.95;;
72813;SDS011;60945;48.516;-2.768;2023-04-03T12:48:48;13.05;;;12.15;;
72813;SDS011;60945;48.516;-2.768;2023-04-03T12:51:40;12.80;;;12.00;;
72813;SDS011;60945;48.516;-2.768;2023-04-03T12:54:13;13.63;;;12.73;;
72813;SDS011;60945;48.516;-2.768;2023-04-03T12:56:40;13.90;;;12.90;;
72813;SDS011;60945;48.516;-2.768;2023-04-03T12:59:25;15.73;;;14.45;;
72813;SDS011;60945;48.516;-2.768;2023-04-03T13:01:58;13.85;;;12.85;;
72813;SDS011;60945;48.516;-2.768;2023-04-03T13:04:26;14.38;;;13.40;;
72813;SDS011;60945;48.516;-2.768;2023-04-03T13:06:53;14.32;;;13.23;;
72813;SDS011;60945;48.516;-2.768;2023-04-03T13:09:29;14.75;;;13.60;;
72813;SDS011;60945;48.516;-2.768;2023-04-03T13:11:58;15.30;;;13.93;;
72813;SDS011;60945;48.516;-2.768;2023-04-03T13:14:35;14.55;;;13.55;;
72813;SDS011;60945;48.516;-2.768;2023-04-03T13:19:41;15.40;;;14.35;;
72813;SDS011;60945;48.516;-2.768;2023-04-03T13:22:11;15.13;;;14.00;;
72813;SDS011;60945;48.516;-2.768;2023-04-03T13:24:47;15.38;;;14.25;;
72813;SDS011;60945;48.516;-2.768;2023-04-03T13:27:15;16.73;;;15.23;;
72813;SDS011;60945;48.516;-2.768;2023-04-03T13:29:42;15.60;;;14.60;;
72813;SDS011;60945;48.516;-2.768;2023-04-03T13:32:14;15.57;;;14.43;;
72813;SDS011;60945;48.516;-2.768;2023-04-03T13:34:44;15.50;;;14.40;;
72813;SDS011;60945;48.516;-2.768;2023-04-03T13:37:20;16.27;;;15.07;;
72813;SDS011;60945;48.516;-2.768;2023-04-03T13:40:11;15.20;;;14.18;;
72813;SDS011;60945;48.516;-2.768;2023-04-03T13:42:38;15.00;;;13.98;;
72813;SDS011;60945;48.516;-2.768;2023-04-03T13:45:10;14.93;;;13.93;;
72813;SDS011;60945;48.516;-2.768;2023-04-03T13:47:52;15.40;;;14.40;;
72813;SDS011;60945;48.516;-2.768;2023-04-03T13:50:31;14.85;;;13.73;;
72813;SDS011;60945;48.516;-2.768;2023-04-03T13:53:09;15.50;;;14.40;;
72813;SDS011;60945;48.516;-2.768;2023-04-03T13:55:51;15.45;;;14.40;;
72813;SDS011;60945;48.516;-2.768;2023-04-03T13:58:24;15.88;;;14.70;;
72813;SDS011;60945;48.516;-2.768;2023-04-03T14:05:51;17.45;;;16.00;;
72813;SDS011;60945;48.516;-2.768;2023-04-03T14:08:18;15.73;;;14.63;;
72813;SDS011;60945;48.516;-2.768;2023-04-03T14:10:44;16.20;;;15.00;;
72813;SDS011;60945;48.516;-2.768;2023-04-03T14:13:14;16.33;;;15.02;;
72813;SDS011;60945;48.516;-2.768;2023-04-03T14:15:42;15.50;;;14.40;;
72813;SDS011;60945;48.516;-2.768;2023-04-03T14:18:12;15.57;;;14.57;;
72813;SDS011;60945;48.516;-2.768;2023-04-03T14:20:39;14.77;;;13.82;;
72813;SDS011;60945;48.516;-2.768;2023-04-03T14:23:05;15.23;;;14.30;;
72813;SDS011;60945;48.516;-2.768;2023-04-03T14:25:31;14.93;;;13.93;;
72813;SDS011;60945;48.516;-2.768;2023-04-03T14:27:57;14.85;;;13.85;;
72813;SDS011;60945;48.516;-2.768;2023-04-03T14:30:29;15.32;;;14.25;;
72813;SDS011;60945;48.516;-2.768;2023-04-03T14:33:00;15.55;;;14.52;;
72813;SDS011;60945;48.516;-2.768;2023-04-03T14:35:26;15.60;;;14.60;;
72813;SDS011;60945;48.516;-2.768;2023-04-03T14:37:53;15.25;;;14.18;;
72813;SDS011;60945;48.516;-2.768;2023-04-03T14:40:20;16.13;;;14.82;;
72813;SDS011;60945;48.516;-2.768;2023-04-03T14:42:49;15.63;;;14.43;;
72813;SDS011;60945;48.516;-2.768;2023-04-03T14:45:16;14.65;;;13.55;;
72813;SDS011;60945;48.516;-2.768;2023-04-03T14:47:47;14.85;;;13.65;;
72813;SDS011;60945;48.516;-2.768;2023-04-03T14:50:16;15.73;;;14.40;;
72813;SDS011;60945;48.516;-2.768;2023-04-03T14:52:46;14.80;;;13.80;;
72813;SDS011;60945;48.516;-2.768;2023-04-03T14:55:14;15.45;;;14.35;;
72813;SDS011;60945;48.516;-2.768;2023-04-03T14:57:41;15.10;;;13.93;;
72813;SDS011;60945;48.516;-2.768;2023-04-03T15:00:07;15.25;;;14.23;;
72813;SDS011;60945;48.516;-2.768;2023-04-03T15:02:41;15.23;;;14.15;;
72813;SDS011;60945;48.516;-2.768;2023-04-03T15:05:07;15.52;;;14.43;;
72813;SDS011;60945;48.516;-2.768;2023-04-03T15:07:36;14.95;;;13.85;;
72813;SDS011;60945;48.516;-2.768;2023-04-03T15:10:17;15.13;;;14.13;;
72813;SDS011;60945;48.516;-2.768;2023-04-03T15:12:49;14.43;;;13.43;;
72813;SDS011;60945;48.516;-2.768;2023-04-03T15:15:16;13.80;;;12.90;;
72813;SDS011;60945;48.516;-2.768;2023-04-03T15:17:44;13.88;;;12.82;;
72813;SDS011;60945;48.516;-2.768;2023-04-03T15:20:18;14.82;;;13.63;;
72813;SDS011;60945;48.516;-2.768;2023-04-03T15:22:46;14.18;;;13.10;;
72813;SDS011;60945;48.516;-2.768;2023-04-03T15:25:12;14.48;;;13.38;;
72813;SDS011;60945;48.516;-2.768;2023-04-03T15:27:37;13.48;;;12.30;;
72813;SDS011;60945;48.516;-2.768;2023-04-03T15:30:05;14.18;;;12.98;;
72813;SDS011;60945;48.516;-2.768;2023-04-03T15:32:32;14.43;;;13.13;;
72813;SDS011;60945;48.516;-2.768;2023-04-03T15:34:59;14.60;;;13.30;;
72813;SDS011;60945;48.516;-2.768;2023-04-03T15:37:25;14.00;;;12.70;;
72813;SDS011;60945;48.516;-2.768;2023-04-03T15:39:50;14.10;;;12.80;;
72813;SDS011;60945;48.516;-2.768;2023-04-03T15:42:19;14.05;;;12.73;;
72813;SDS011;60945;48.516;-2.768;2023-04-03T15:44:47;14.40;;;12.90;;
72813;SDS011;60945;48.516;-2.768;2023-04-03T15:47:13;14.00;;;12.60;;
72813;SDS011;60945;48.516;-2.768;2023-04-03T15:49:39;16.00;;;12.43;;
72813;SDS011;60945;48.516;-2.768;2023-04-03T15:52:05;14.05;;;12.55;;
72813;SDS011;60945;48.516;-2.768;2023-04-03T15:54:31;15.40;;;12.30;;
72813;SDS011;60945;48.516;-2.768;2023-04-03T15:56:56;15.32;;;12.13;;
72813;SDS011;60945;48.516;-2.768;2023-04-03T15:59:22;15.52;;;12.00;;
72813;SDS011;60945;48.516;-2.768;2023-04-03T16:01:48;16.80;;;12.32;;
72813;SDS011;60945;48.516;-2.768;2023-04-03T16:04:15;13.20;;;11.80;;
72813;SDS011;60945;48.516;-2.768;2023-04-03T16:06:41;13.23;;;10.85;;
72813;SDS011;60945;48.516;-2.768;2023-04-03T16:09:10;12.80;;;11.05;;
72813;SDS011;60945;48.516;-2.768;2023-04-03T16:11:36;12.20;;;10.90;;
72813;SDS011;60945;48.516;-2.768;2023-04-03T16:14:04;11.65;;;10.23;;
72813;SDS011;60945;48.516;-2.768;2023-04-03T16:16:31;12.60;;;10.52;;
72813;SDS011;60945;48.516;-2.768;2023-04-03T16:18:57;12.95;;;10.82;;